sensor_id;sensor_type;location;lat;lon;timestamp;P1;durP1;ratioP1;P2;durP2;ratioP2
69716;SDS011;67420;46.144;19.666;2023-07-09T00:08:46;2.95;;;1.73;;
69716;SDS011;67420;46.144;19.666;2023-07-09T00:18:49;2.35;;;1.92;;
69716;SDS011;67420;46.144;19.666;2023-07-09T00:28:51;2.42;;;1.88;;
69716;SDS011;67420;46.144;19.666;2023-07-09T00:38:53;2.15;;;1.75;;
69716;SDS011;67420;46.144;19.666;2023-07-09T00:48:57;1.95;;;1.85;;
69716;SDS011;67420;46.144;19.666;2023-07-09T00:59:06;2.20;;;1.90;;
69716;SDS011;67420;46.144;19.666;2023-07-09T01:09:13;3.47;;;1.92;;
69716;SDS011;67420;46.144;19.666;2023-07-09T01:19:15;2.40;;;1.98;;
69716;SDS011;67420;46.144;19.666;2023-07-09T01:29:29;2.10;;;1.80;;
69716;SDS011;67420;46.144;19.666;2023-07-09T01:39:34;2.10;;;1.90;;
69716;SDS011;67420;46.144;19.666;2023-07-09T01:49:38;2.00;;;1.80;;
69716;SDS011;67420;46.144;19.666;2023-07-09T01:59:41;2.00;;;1.85;;
69716;SDS011;67420;46.144;19.666;2023-07-09T02:09:44;2.38;;;1.67;;
69716;SDS011;67420;46.144;19.666;2023-07-09T02:19:46;2.63;;;2.00;;
69716;SDS011;67420;46.144;19.666;2023-07-09T02:29:48;2.33;;;1.98;;
69716;SDS011;67420;46.144;19.666;2023-07-09T02:39:50;1.70;;;1.60;;
69716;SDS011;67420;46.144;19.666;2023-07-09T02:49:52;3.00;;;2.10;;
69716;SDS011;67420;46.144;19.666;2023-07-09T02:59:55;2.30;;;2.00;;
69716;SDS011;67420;46.144;19.666;2023-07-09T03:09:57;2.55;;;1.90;;
69716;SDS011;67420;46.144;19.666;2023-07-09T03:19:58;3.50;;;2.10;;
69716;SDS011;67420;46.144;19.666;2023-07-09T03:30:01;2.08;;;1.80;;
69716;SDS011;67420;46.144;19.666;2023-07-09T03:40:04;2.33;;;1.85;;
69716;SDS011;67420;46.144;19.666;2023-07-09T03:50:08;2.58;;;1.80;;
69716;SDS011;67420;46.144;19.666;2023-07-09T04:00:12;2.25;;;1.95;;
69716;SDS011;67420;46.144;19.666;2023-07-09T04:10:14;1.90;;;1.70;;
69716;SDS011;67420;46.144;19.666;2023-07-09T04:20:16;2.40;;;2.10;;
69716;SDS011;67420;46.144;19.666;2023-07-09T04:30:19;4.10;;;2.30;;
69716;SDS011;67420;46.144;19.666;2023-07-09T04:40:21;3.20;;;2.50;;
69716;SDS011;67420;46.144;19.666;2023-07-09T04:50:23;3.53;;;2.47;;
69716;SDS011;67420;46.144;19.666;2023-07-09T05:00:26;2.78;;;2.40;;
69716;SDS011;67420;46.144;19.666;2023-07-09T05:10:28;3.55;;;2.60;;
69716;SDS011;67420;46.144;19.666;2023-07-09T05:20:30;3.13;;;2.40;;
69716;SDS011;67420;46.144;19.666;2023-07-09T05:30:32;2.58;;;2.38;;
69716;SDS011;67420;46.144;19.666;2023-07-09T05:40:35;2.45;;;2.03;;
69716;SDS011;67420;46.144;19.666;2023-07-09T05:50:37;2.10;;;1.85;;
69716;SDS011;67420;46.144;19.666;2023-07-09T06:00:39;3.00;;;2.10;;
69716;SDS011;67420;46.144;19.666;2023-07-09T06:10:58;2.28;;;1.98;;
69716;SDS011;67420;46.144;19.666;2023-07-09T06:21:02;2.30;;;1.87;;
69716;SDS011;67420;46.144;19.666;2023-07-09T06:31:05;3.35;;;2.17;;
69716;SDS011;67420;46.144;19.666;2023-07-09T06:41:10;1.92;;;1.67;;
69716;SDS011;67420;46.144;19.666;2023-07-09T06:51:13;3.20;;;1.92;;
69716;SDS011;67420;46.144;19.666;2023-07-09T07:01:15;1.98;;;1.63;;
69716;SDS011;67420;46.144;19.666;2023-07-09T07:11:19;2.30;;;1.80;;
69716;SDS011;67420;46.144;19.666;2023-07-09T07:21:21;2.80;;;2.00;;
69716;SDS011;67420;46.144;19.666;2023-07-09T07:31:23;2.75;;;1.73;;
69716;SDS011;67420;46.144;19.666;2023-07-09T07:41:25;2.38;;;1.92;;
69716;SDS011;67420;46.144;19.666;2023-07-09T07:51:28;2.83;;;1.75;;
69716;SDS011;67420;46.144;19.666;2023-07-09T08:01:30;2.15;;;1.88;;
69716;SDS011;67420;46.144;19.666;2023-07-09T08:11:32;2.10;;;1.77;;
69716;SDS011;67420;46.144;19.666;2023-07-09T08:21:34;1.98;;;1.77;;
69716;SDS011;67420;46.144;19.666;2023-07-09T08:31:36;2.03;;;1.70;;
69716;SDS011;67420;46.144;19.666;2023-07-09T08:41:57;1.73;;;1.63;;
69716;SDS011;67420;46.144;19.666;2023-07-09T09:02:35;1.63;;;1.50;;
69716;SDS011;67420;46.144;19.666;2023-07-09T09:13:29;2.53;;;1.70;;
69716;SDS011;67420;46.144;19.666;2023-07-09T09:33:17;2.20;;;1.85;;
69716;SDS011;67420;46.144;19.666;2023-07-09T09:43:20;2.08;;;1.70;;
69716;SDS011;67420;46.144;19.666;2023-07-09T09:53:24;2.00;;;1.80;;
69716;SDS011;67420;46.144;19.666;2023-07-09T10:03:37;2.00;;;1.70;;
69716;SDS011;67420;46.144;19.666;2023-07-09T10:13:41;1.92;;;1.65;;
69716;SDS011;67420;46.144;19.666;2023-07-09T10:34:28;2.53;;;1.60;;
69716;SDS011;67420;46.144;19.666;2023-07-09T10:44:36;1.80;;;1.70;;
69716;SDS011;67420;46.144;19.666;2023-07-09T10:54:53;2.03;;;1.80;;
69716;SDS011;67420;46.144;19.666;2023-07-09T11:05:04;1.90;;;1.67;;
69716;SDS011;67420;46.144;19.666;2023-07-09T11:15:15;2.65;;;1.88;;
69716;SDS011;67420;46.144;19.666;2023-07-09T11:25:27;2.20;;;1.77;;
69716;SDS011;67420;46.144;19.666;2023-07-09T11:35:50;1.90;;;1.50;;
69716;SDS011;67420;46.144;19.666;2023-07-09T11:46:00;1.75;;;1.65;;
69716;SDS011;67420;46.144;19.666;2023-07-09T11:56:09;2.08;;;1.88;;
69716;SDS011;67420;46.144;19.666;2023-07-09T12:06:20;2.53;;;1.98;;
69716;SDS011;67420;46.144;19.666;2023-07-09T12:16:27;2.25;;;1.80;;
69716;SDS011;67420;46.144;19.666;2023-07-09T12:26:30;1.80;;;1.70;;
69716;SDS011;67420;46.144;19.666;2023-07-09T12:36:35;1.90;;;1.75;;
69716;SDS011;67420;46.144;19.666;2023-07-09T12:46:38;1.92;;;1.80;;
69716;SDS011;67420;46.144;19.666;2023-07-09T12:56:40;1.90;;;1.70;;
69716;SDS011;67420;46.144;19.666;2023-07-09T13:06:44;1.98;;;1.80;;
69716;SDS011;67420;46.144;19.666;2023-07-09T13:16:48;2.15;;;1.77;;
69716;SDS011;67420;46.144;19.666;2023-07-09T13:26:50;2.10;;;1.90;;
69716;SDS011;67420;46.144;19.666;2023-07-09T13:36:53;2.05;;;1.80;;
69716;SDS011;67420;46.144;19.666;2023-07-09T13:46:58;2.20;;;2.00;;
69716;SDS011;67420;46.144;19.666;2023-07-09T13:57:00;2.55;;;1.80;;
69716;SDS011;67420;46.144;19.666;2023-07-09T14:07:03;1.85;;;1.75;;
69716;SDS011;67420;46.144;19.666;2023-07-09T14:17:06;2.03;;;1.80;;
69716;SDS011;67420;46.144;19.666;2023-07-09T14:27:08;2.20;;;2.00;;
69716;SDS011;67420;46.144;19.666;2023-07-09T14:37:11;2.30;;;2.10;;
69716;SDS011;67420;46.144;19.666;2023-07-09T14:47:17;2.35;;;2.15;;
69716;SDS011;67420;46.144;19.666;2023-07-09T14:57:22;2.35;;;1.83;;
69716;SDS011;67420;46.144;19.666;2023-07-09T15:07:27;2.25;;;1.90;;
69716;SDS011;67420;46.144;19.666;2023-07-09T15:17:31;2.03;;;1.80;;
69716;SDS011;67420;46.144;19.666;2023-07-09T15:27:33;2.58;;;2.00;;
69716;SDS011;67420;46.144;19.666;2023-07-09T15:37:35;2.55;;;2.08;;
69716;SDS011;67420;46.144;19.666;2023-07-09T15:47:37;2.42;;;2.10;;
69716;SDS011;67420;46.144;19.666;2023-07-09T15:57:41;2.17;;;1.98;;
69716;SDS011;67420;46.144;19.666;2023-07-09T16:07:44;2.22;;;1.98;;
69716;SDS011;67420;46.144;19.666;2023-07-09T16:17:46;2.10;;;1.90;;
69716;SDS011;67420;46.144;19.666;2023-07-09T16:27:49;2.15;;;1.92;;
69716;SDS011;67420;46.144;19.666;2023-07-09T16:37:52;2.80;;;1.95;;
69716;SDS011;67420;46.144;19.666;2023-07-09T16:47:54;3.22;;;2.15;;
69716;SDS011;67420;46.144;19.666;2023-07-09T16:57:57;2.20;;;2.00;;
69716;SDS011;67420;46.144;19.666;2023-07-09T17:07:59;2.35;;;2.10;;
69716;SDS011;67420;46.144;19.666;2023-07-09T17:18:04;3.03;;;1.92;;
69716;SDS011;67420;46.144;19.666;2023-07-09T17:28:20;3.50;;;1.90;;
69716;SDS011;67420;46.144;19.666;2023-07-09T17:38:41;2.42;;;1.98;;
69716;SDS011;67420;46.144;19.666;2023-07-09T17:48:44;4.60;;;2.17;;
69716;SDS011;67420;46.144;19.666;2023-07-09T17:58:46;5.05;;;2.35;;
69716;SDS011;67420;46.144;19.666;2023-07-09T18:08:49;3.33;;;2.30;;
69716;SDS011;67420;46.144;19.666;2023-07-09T18:18:51;3.10;;;1.90;;
69716;SDS011;67420;46.144;19.666;2023-07-09T18:28:53;3.20;;;1.80;;
69716;SDS011;67420;46.144;19.666;2023-07-09T18:38:56;2.42;;;2.05;;
69716;SDS011;67420;46.144;19.666;2023-07-09T18:48:59;3.83;;;1.92;;
69716;SDS011;67420;46.144;19.666;2023-07-09T18:59:01;4.15;;;2.28;;
69716;SDS011;67420;46.144;19.666;2023-07-09T19:09:16;3.17;;;2.00;;
69716;SDS011;67420;46.144;19.666;2023-07-09T19:19:20;6.40;;;2.25;;
69716;SDS011;67420;46.144;19.666;2023-07-09T19:29:25;4.82;;;2.35;;
69716;SDS011;67420;46.144;19.666;2023-07-09T19:39:30;4.38;;;2.10;;
69716;SDS011;67420;46.144;19.666;2023-07-09T19:49:34;3.80;;;2.10;;
69716;SDS011;67420;46.144;19.666;2023-07-09T19:59:36;3.08;;;2.05;;
69716;SDS011;67420;46.144;19.666;2023-07-09T20:09:39;2.92;;;2.05;;
69716;SDS011;67420;46.144;19.666;2023-07-09T20:19:43;2.70;;;2.05;;
69716;SDS011;67420;46.144;19.666;2023-07-09T20:29:45;3.63;;;2.13;;
69716;SDS011;67420;46.144;19.666;2023-07-09T20:39:47;4.80;;;2.10;;
69716;SDS011;67420;46.144;19.666;2023-07-09T20:49:50;3.78;;;2.00;;
69716;SDS011;67420;46.144;19.666;2023-07-09T20:59:53;3.50;;;2.58;;
69716;SDS011;67420;46.144;19.666;2023-07-09T21:09:55;3.22;;;2.20;;
69716;SDS011;67420;46.144;19.666;2023-07-09T21:19:57;2.83;;;2.03;;
69716;SDS011;67420;46.144;19.666;2023-07-09T21:29:59;3.92;;;2.55;;
69716;SDS011;67420;46.144;19.666;2023-07-09T21:40:04;3.38;;;2.30;;
69716;SDS011;67420;46.144;19.666;2023-07-09T21:50:26;6.10;;;2.30;;
69716;SDS011;67420;46.144;19.666;2023-07-09T22:00:30;4.03;;;2.20;;
69716;SDS011;67420;46.144;19.666;2023-07-09T22:10:41;2.78;;;2.05;;
69716;SDS011;67420;46.144;19.666;2023-07-09T22:20:48;5.20;;;2.15;;
69716;SDS011;67420;46.144;19.666;2023-07-09T22:30:49;2.53;;;2.08;;
69716;SDS011;67420;46.144;19.666;2023-07-09T22:40:52;3.83;;;2.15;;
69716;SDS011;67420;46.144;19.666;2023-07-09T22:50:54;2.78;;;2.20;;
69716;SDS011;67420;46.144;19.666;2023-07-09T23:00:58;2.80;;;2.28;;
69716;SDS011;67420;46.144;19.666;2023-07-09T23:11:02;3.30;;;2.30;;
69716;SDS011;67420;46.144;19.666;2023-07-09T23:21:04;2.72;;;2.00;;
69716;SDS011;67420;46.144;19.666;2023-07-09T23:31:08;4.10;;;2.40;;
69716;SDS011;67420;46.144;19.666;2023-07-09T23:41:35;3.15;;;2.25;;
69716;SDS011;67420;46.144;19.666;2023-07-09T23:51:39;3.03;;;2.15;;
